sensor_id;sensor_type;location;lat;lon;timestamp;pressure;altitude;pressure_sealevel;temperature;humidity
2397;BME280;1209;48.410;9.054;2023-03-21T00:01:29;96441.50;;;8.52;100.00
2397;BME280;1209;48.410;9.054;2023-03-21T00:03:54;96443.75;;;8.47;100.00
2397;BME280;1209;48.410;9.054;2023-03-21T00:06:19;96443.91;;;8.45;100.00
2397;BME280;1209;48.410;9.054;2023-03-21T00:08:45;96445.50;;;8.38;100.00
2397;BME280;1209;48.410;9.054;2023-03-21T00:11:11;96440.97;;;8.40;100.00
2397;BME280;1209;48.410;9.054;2023-03-21T00:13:37;96439.66;;;8.36;100.00
2397;BME280;1209;48.410;9.054;2023-03-21T00:16:09;96435.09;;;8.38;100.00
2397;BME280;1209;48.410;9.054;2023-03-21T00:18:35;96438.34;;;8.40;100.00
2397;BME280;1209;48.410;9.054;2023-03-21T00:21:04;96443.63;;;8.23;100.00
2397;BME280;1209;48.410;9.054;2023-03-21T00:23:31;96430.97;;;8.28;100.00
2397;BME280;1209;48.410;9.054;2023-03-21T00:25:57;96436.25;;;8.10;100.00
2397;BME280;1209;48.410;9.054;2023-03-21T00:28:22;96423.78;;;8.21;100.00
2397;BME280;1209;48.410;9.054;2023-03-21T00:30:49;96420.78;;;8.34;100.00
2397;BME280;1209;48.410;9.054;2023-03-21T00:33:14;96434.34;;;8.20;100.00
2397;BME280;1209;48.410;9.054;2023-03-21T00:35:40;96422.31;;;7.93;100.00
2397;BME280;1209;48.410;9.054;2023-03-21T00:38:12;96413.09;;;7.99;100.00
2397;BME280;1209;48.410;9.054;2023-03-21T00:40:37;96414.53;;;7.93;100.00
2397;BME280;1209;48.410;9.054;2023-03-21T00:43:02;96406.50;;;8.12;100.00
2397;BME280;1209;48.410;9.054;2023-03-21T00:45:28;96402.16;;;8.21;100.00
2397;BME280;1209;48.410;9.054;2023-03-21T00:47:53;96401.50;;;8.19;100.00
2397;BME280;1209;48.410;9.054;2023-03-21T00:50:18;96407.84;;;8.25;100.00
2397;BME280;1209;48.410;9.054;2023-03-21T00:52:43;96405.66;;;8.38;100.00
2397;BME280;1209;48.410;9.054;2023-03-21T00:55:13;96398.31;;;8.33;100.00
2397;BME280;1209;48.410;9.054;2023-03-21T00:57:39;96402.91;;;8.39;100.00
2397;BME280;1209;48.410;9.054;2023-03-21T01:00:06;96400.78;;;8.43;100.00
2397;BME280;1209;48.410;9.054;2023-03-21T01:02:34;96398.16;;;8.35;100.00
2397;BME280;1209;48.410;9.054;2023-03-21T01:05:02;96399.63;;;8.37;100.00
2397;BME280;1209;48.410;9.054;2023-03-21T01:07:28;96404.19;;;8.35;100.00
2397;BME280;1209;48.410;9.054;2023-03-21T01:09:53;96395.56;;;8.35;100.00
2397;BME280;1209;48.410;9.054;2023-03-21T01:12:18;96394.75;;;8.34;100.00
2397;BME280;1209;48.410;9.054;2023-03-21T01:14:44;96395.75;;;8.41;100.00
2397;BME280;1209;48.410;9.054;2023-03-21T01:17:09;96395.66;;;8.25;100.00
2397;BME280;1209;48.410;9.054;2023-03-21T01:19:34;96392.56;;;8.21;100.00
2397;BME280;1209;48.410;9.054;2023-03-21T01:22:00;96391.38;;;8.08;100.00
2397;BME280;1209;48.410;9.054;2023-03-21T01:24:25;96393.31;;;8.06;100.00
2397;BME280;1209;48.410;9.054;2023-03-21T01:26:50;96398.06;;;8.10;100.00
2397;BME280;1209;48.410;9.054;2023-03-21T01:29:16;96386.19;;;8.16;100.00
2397;BME280;1209;48.410;9.054;2023-03-21T01:31:41;96391.25;;;8.17;100.00
2397;BME280;1209;48.410;9.054;2023-03-21T01:34:07;96384.75;;;8.21;100.00
2397;BME280;1209;48.410;9.054;2023-03-21T01:36:32;96389.16;;;8.21;100.00
2397;BME280;1209;48.410;9.054;2023-03-21T01:38:57;96386.88;;;8.18;100.00
2397;BME280;1209;48.410;9.054;2023-03-21T01:41:28;96380.47;;;8.04;100.00
2397;BME280;1209;48.410;9.054;2023-03-21T01:43:54;96387.31;;;8.05;100.00
2397;BME280;1209;48.410;9.054;2023-03-21T01:46:35;96380.81;;;8.09;100.00
2397;BME280;1209;48.410;9.054;2023-03-21T01:49:08;96376.28;;;8.11;100.00
2397;BME280;1209;48.410;9.054;2023-03-21T01:51:38;96384.72;;;8.13;100.00
2397;BME280;1209;48.410;9.054;2023-03-21T01:54:05;96379.06;;;8.18;100.00
2397;BME280;1209;48.410;9.054;2023-03-21T01:56:36;96372.41;;;8.24;100.00
2397;BME280;1209;48.410;9.054;2023-03-21T01:59:10;96370.31;;;8.27;100.00
2397;BME280;1209;48.410;9.054;2023-03-21T02:01:36;96370.81;;;8.31;100.00
2397;BME280;1209;48.410;9.054;2023-03-21T02:04:06;96369.84;;;8.32;100.00
2397;BME280;1209;48.410;9.054;2023-03-21T02:09:11;96366.41;;;8.23;100.00
2397;BME280;1209;48.410;9.054;2023-03-21T02:11:37;96368.19;;;8.23;100.00
2397;BME280;1209;48.410;9.054;2023-03-21T02:14:03;96367.69;;;8.19;100.00
2397;BME280;1209;48.410;9.054;2023-03-21T02:27:21;96355.47;;;8.11;100.00
2397;BME280;1209;48.410;9.054;2023-03-21T02:35:33;96353.19;;;8.08;100.00
2397;BME280;1209;48.410;9.054;2023-03-21T02:38:07;96352.56;;;8.14;100.00
2397;BME280;1209;48.410;9.054;2023-03-21T02:40:39;96343.78;;;8.15;100.00
2397;BME280;1209;48.410;9.054;2023-03-21T02:43:12;96345.06;;;8.11;100.00
2397;BME280;1209;48.410;9.054;2023-03-21T02:48:28;96334.16;;;8.08;100.00
2397;BME280;1209;48.410;9.054;2023-03-21T02:50:58;96340.63;;;8.04;100.00
2397;BME280;1209;48.410;9.054;2023-03-21T02:53:27;96345.94;;;7.94;100.00
2397;BME280;1209;48.410;9.054;2023-03-21T02:55:56;96349.19;;;7.88;100.00
2397;BME280;1209;48.410;9.054;2023-03-21T02:58:24;96347.38;;;7.88;100.00
2397;BME280;1209;48.410;9.054;2023-03-21T03:00:52;96348.03;;;7.90;100.00
2397;BME280;1209;48.410;9.054;2023-03-21T03:03:20;96352.44;;;7.90;100.00
2397;BME280;1209;48.410;9.054;2023-03-21T03:05:48;96349.00;;;7.89;100.00
2397;BME280;1209;48.410;9.054;2023-03-21T03:08:35;96348.03;;;7.90;100.00
2397;BME280;1209;48.410;9.054;2023-03-21T03:11:35;96348.16;;;7.81;100.00
2397;BME280;1209;48.410;9.054;2023-03-21T03:14:12;96348.00;;;7.82;100.00
2397;BME280;1209;48.410;9.054;2023-03-21T03:19:16;96350.00;;;7.88;100.00
2397;BME280;1209;48.410;9.054;2023-03-21T03:21:49;96341.69;;;7.85;100.00
2397;BME280;1209;48.410;9.054;2023-03-21T03:24:25;96337.78;;;7.81;100.00
2397;BME280;1209;48.410;9.054;2023-03-21T03:26:59;96337.16;;;7.87;100.00
2397;BME280;1209;48.410;9.054;2023-03-21T03:32:52;96337.34;;;7.94;100.00
2397;BME280;1209;48.410;9.054;2023-03-21T03:35:20;96336.19;;;7.96;100.00
2397;BME280;1209;48.410;9.054;2023-03-21T03:37:52;96331.00;;;7.96;100.00
2397;BME280;1209;48.410;9.054;2023-03-21T03:40:34;96332.53;;;8.07;100.00
2397;BME280;1209;48.410;9.054;2023-03-21T03:43:04;96330.75;;;8.07;100.00
2397;BME280;1209;48.410;9.054;2023-03-21T03:45:34;96334.25;;;7.98;100.00
2397;BME280;1209;48.410;9.054;2023-03-21T03:48:17;96332.00;;;8.03;100.00
2397;BME280;1209;48.410;9.054;2023-03-21T03:51:06;96332.97;;;8.02;100.00
2397;BME280;1209;48.410;9.054;2023-03-21T03:53:39;96325.97;;;7.95;100.00
2397;BME280;1209;48.410;9.054;2023-03-21T03:56:07;96318.16;;;7.95;100.00
2397;BME280;1209;48.410;9.054;2023-03-21T03:58:36;96327.59;;;7.96;100.00
2397;BME280;1209;48.410;9.054;2023-03-21T04:01:03;96322.53;;;7.94;100.00
2397;BME280;1209;48.410;9.054;2023-03-21T04:03:29;96315.22;;;7.89;100.00
2397;BME280;1209;48.410;9.054;2023-03-21T04:05:55;96316.50;;;7.85;100.00
2397;BME280;1209;48.410;9.054;2023-03-21T04:08:21;96312.91;;;7.78;100.00
2397;BME280;1209;48.410;9.054;2023-03-21T04:10:47;96316.28;;;7.71;100.00
2397;BME280;1209;48.410;9.054;2023-03-21T04:13:13;96312.06;;;7.70;100.00
2397;BME280;1209;48.410;9.054;2023-03-21T04:15:39;96319.16;;;7.60;100.00
2397;BME280;1209;48.410;9.054;2023-03-21T04:18:04;96308.75;;;7.60;100.00
2397;BME280;1209;48.410;9.054;2023-03-21T04:20:30;96309.72;;;7.58;100.00
2397;BME280;1209;48.410;9.054;2023-03-21T04:22:55;96305.28;;;7.51;100.00
2397;BME280;1209;48.410;9.054;2023-03-21T04:25:21;96311.06;;;7.37;100.00
2397;BME280;1209;48.410;9.054;2023-03-21T04:27:46;96318.53;;;7.40;100.00
2397;BME280;1209;48.410;9.054;2023-03-21T04:30:13;96311.72;;;7.39;100.00
2397;BME280;1209;48.410;9.054;2023-03-21T04:32:39;96308.75;;;7.34;100.00
2397;BME280;1209;48.410;9.054;2023-03-21T04:35:06;96310.53;;;7.33;100.00
2397;BME280;1209;48.410;9.054;2023-03-21T04:37:32;96313.91;;;7.25;100.00
2397;BME280;1209;48.410;9.054;2023-03-21T04:40:02;96316.72;;;7.32;100.00
2397;BME280;1209;48.410;9.054;2023-03-21T04:42:32;96312.44;;;7.23;100.00
2397;BME280;1209;48.410;9.054;2023-03-21T04:44:58;96311.78;;;7.21;100.00
2397;BME280;1209;48.410;9.054;2023-03-21T04:47:23;96301.53;;;7.19;100.00
2397;BME280;1209;48.410;9.054;2023-03-21T04:49:49;96316.59;;;7.16;100.00
2397;BME280;1209;48.410;9.054;2023-03-21T04:52:14;96316.38;;;7.09;100.00
2397;BME280;1209;48.410;9.054;2023-03-21T04:54:39;96314.22;;;7.05;100.00
2397;BME280;1209;48.410;9.054;2023-03-21T04:57:05;96311.47;;;7.06;100.00
2397;BME280;1209;48.410;9.054;2023-03-21T04:59:30;96312.59;;;7.04;100.00
2397;BME280;1209;48.410;9.054;2023-03-21T05:01:56;96311.06;;;7.11;100.00
2397;BME280;1209;48.410;9.054;2023-03-21T05:04:23;96318.16;;;7.09;100.00
2397;BME280;1209;48.410;9.054;2023-03-21T05:06:48;96311.06;;;7.11;100.00
2397;BME280;1209;48.410;9.054;2023-03-21T05:09:13;96312.44;;;7.05;100.00
2397;BME280;1209;48.410;9.054;2023-03-21T05:11:40;96320.75;;;7.09;100.00
2397;BME280;1209;48.410;9.054;2023-03-21T05:14:07;96318.72;;;6.94;100.00
2397;BME280;1209;48.410;9.054;2023-03-21T05:16:33;96323.59;;;6.98;100.00
2397;BME280;1209;48.410;9.054;2023-03-21T05:19:01;96321.59;;;6.91;100.00
2397;BME280;1209;48.410;9.054;2023-03-21T05:21:32;96324.50;;;6.88;100.00
2397;BME280;1209;48.410;9.054;2023-03-21T05:24:10;96320.56;;;6.84;100.00
2397;BME280;1209;48.410;9.054;2023-03-21T05:26:38;96326.66;;;6.93;100.00
2397;BME280;1209;48.410;9.054;2023-03-21T05:29:04;96322.56;;;6.90;100.00
2397;BME280;1209;48.410;9.054;2023-03-21T05:31:30;96318.72;;;6.94;100.00
2397;BME280;1209;48.410;9.054;2023-03-21T05:33:55;96317.06;;;6.93;100.00
2397;BME280;1209;48.410;9.054;2023-03-21T05:36:20;96327.97;;;6.97;100.00
2397;BME280;1209;48.410;9.054;2023-03-21T05:38:46;96326.44;;;6.86;100.00
2397;BME280;1209;48.410;9.054;2023-03-21T05:41:12;96320.56;;;6.84;100.00
2397;BME280;1209;48.410;9.054;2023-03-21T05:43:38;96338.97;;;6.91;100.00
2397;BME280;1209;48.410;9.054;2023-03-21T05:46:03;96330.44;;;6.81;100.00
2397;BME280;1209;48.410;9.054;2023-03-21T05:48:28;96330.16;;;6.66;100.00
2397;BME280;1209;48.410;9.054;2023-03-21T05:50:54;96322.13;;;6.59;100.00
2397;BME280;1209;48.410;9.054;2023-03-21T05:53:19;96325.03;;;6.56;100.00
2397;BME280;1209;48.410;9.054;2023-03-21T05:55:44;96326.78;;;6.56;100.00
2397;BME280;1209;48.410;9.054;2023-03-21T05:58:10;96332.13;;;6.54;100.00
2397;BME280;1209;48.410;9.054;2023-03-21T06:00:35;96333.72;;;6.65;100.00
2397;BME280;1209;48.410;9.054;2023-03-21T06:03:00;96331.34;;;6.72;100.00
2397;BME280;1209;48.410;9.054;2023-03-21T06:05:26;96330.69;;;6.70;100.00
2397;BME280;1209;48.410;9.054;2023-03-21T06:07:51;96328.31;;;6.76;100.00
2397;BME280;1209;48.410;9.054;2023-03-21T06:10:16;96325.25;;;6.81;100.00
2397;BME280;1209;48.410;9.054;2023-03-21T06:12:41;96332.22;;;6.80;100.00
2397;BME280;1209;48.410;9.054;2023-03-21T06:15:08;96332.81;;;6.74;100.00
2397;BME280;1209;48.410;9.054;2023-03-21T06:17:33;96323.47;;;6.81;100.00
2397;BME280;1209;48.410;9.054;2023-03-21T06:19:59;96321.25;;;6.86;100.00
2397;BME280;1209;48.410;9.054;2023-03-21T06:22:29;96335.41;;;6.92;100.00
2397;BME280;1209;48.410;9.054;2023-03-21T06:24:54;96325.69;;;6.94;100.00
2397;BME280;1209;48.410;9.054;2023-03-21T06:27:20;96326.13;;;6.89;100.00
2397;BME280;1209;48.410;9.054;2023-03-21T06:29:45;96324.09;;;7.01;100.00
2397;BME280;1209;48.410;9.054;2023-03-21T06:32:11;96322.13;;;6.95;100.00
2397;BME280;1209;48.410;9.054;2023-03-21T06:34:36;96322.63;;;6.99;100.00
2397;BME280;1209;48.410;9.054;2023-03-21T06:37:02;96323.00;;;7.04;100.00
2397;BME280;1209;48.410;9.054;2023-03-21T06:39:28;96320.53;;;7.02;100.00
2397;BME280;1209;48.410;9.054;2023-03-21T06:41:55;96323.88;;;7.12;100.00
2397;BME280;1209;48.410;9.054;2023-03-21T06:44:21;96327.00;;;7.16;100.00
2397;BME280;1209;48.410;9.054;2023-03-21T06:46:46;96323.28;;;7.18;100.00
2397;BME280;1209;48.410;9.054;2023-03-21T06:49:12;96318.28;;;7.25;100.00
2397;BME280;1209;48.410;9.054;2023-03-21T06:51:37;96314.31;;;7.39;100.00
2397;BME280;1209;48.410;9.054;2023-03-21T06:54:03;96320.69;;;7.44;100.00
2397;BME280;1209;48.410;9.054;2023-03-21T06:56:28;96315.50;;;7.52;100.00
2397;BME280;1209;48.410;9.054;2023-03-21T06:58:53;96308.53;;;7.53;100.00
2397;BME280;1209;48.410;9.054;2023-03-21T07:01:18;96305.50;;;7.57;100.00
2397;BME280;1209;48.410;9.054;2023-03-21T07:03:44;96308.59;;;7.61;100.00
2397;BME280;1209;48.410;9.054;2023-03-21T07:06:10;96314.50;;;7.71;100.00
2397;BME280;1209;48.410;9.054;2023-03-21T07:08:37;96313.56;;;7.80;100.00
2397;BME280;1209;48.410;9.054;2023-03-21T07:11:03;96314.22;;;7.82;100.00
2397;BME280;1209;48.410;9.054;2023-03-21T07:13:29;96310.19;;;7.96;100.00
2397;BME280;1209;48.410;9.054;2023-03-21T07:15:54;96307.19;;;8.09;100.00
2397;BME280;1209;48.410;9.054;2023-03-21T07:18:20;96308.19;;;8.24;100.00
2397;BME280;1209;48.410;9.054;2023-03-21T07:20:46;96318.03;;;8.46;100.00
2397;BME280;1209;48.410;9.054;2023-03-21T07:23:16;96316.59;;;8.60;100.00
2397;BME280;1209;48.410;9.054;2023-03-21T07:25:41;96318.72;;;8.65;100.00
2397;BME280;1209;48.410;9.054;2023-03-21T07:28:06;96317.56;;;8.59;100.00
2397;BME280;1209;48.410;9.054;2023-03-21T07:30:33;96317.41;;;8.85;100.00
2397;BME280;1209;48.410;9.054;2023-03-21T07:32:59;96322.97;;;9.06;100.00
2397;BME280;1209;48.410;9.054;2023-03-21T07:35:24;96310.75;;;9.07;100.00
2397;BME280;1209;48.410;9.054;2023-03-21T07:37:49;96312.00;;;9.43;100.00
2397;BME280;1209;48.410;9.054;2023-03-21T07:40:16;96308.69;;;9.74;100.00
2397;BME280;1209;48.410;9.054;2023-03-21T07:42:42;96317.09;;;9.92;100.00
2397;BME280;1209;48.410;9.054;2023-03-21T07:45:08;96311.31;;;10.13;100.00
2397;BME280;1209;48.410;9.054;2023-03-21T07:47:34;96314.78;;;10.36;100.00
2397;BME280;1209;48.410;9.054;2023-03-21T07:50:00;96311.81;;;10.48;100.00
2397;BME280;1209;48.410;9.054;2023-03-21T07:52:25;96308.41;;;10.70;100.00
2397;BME280;1209;48.410;9.054;2023-03-21T07:54:51;96316.81;;;10.57;100.00
2397;BME280;1209;48.410;9.054;2023-03-21T07:57:16;96319.00;;;10.68;100.00
2397;BME280;1209;48.410;9.054;2023-03-21T07:59:42;96310.03;;;10.94;100.00
2397;BME280;1209;48.410;9.054;2023-03-21T08:02:13;96313.88;;;11.21;100.00
2397;BME280;1209;48.410;9.054;2023-03-21T08:04:39;96304.19;;;11.59;100.00
2397;BME280;1209;48.410;9.054;2023-03-21T08:07:04;96298.59;;;11.77;100.00
2397;BME280;1209;48.410;9.054;2023-03-21T08:09:30;96293.72;;;11.74;100.00
2397;BME280;1209;48.410;9.054;2023-03-21T08:11:55;96294.22;;;12.07;100.00
2397;BME280;1209;48.410;9.054;2023-03-21T08:14:20;96293.78;;;12.39;100.00
2397;BME280;1209;48.410;9.054;2023-03-21T08:16:46;96284.81;;;12.48;100.00
2397;BME280;1209;48.410;9.054;2023-03-21T08:19:11;96287.88;;;12.52;100.00
2397;BME280;1209;48.410;9.054;2023-03-21T08:21:36;96283.69;;;13.00;100.00
2397;BME280;1209;48.410;9.054;2023-03-21T08:24:03;96283.06;;;13.19;100.00
2397;BME280;1209;48.410;9.054;2023-03-21T08:26:29;96283.56;;;13.30;100.00
2397;BME280;1209;48.410;9.054;2023-03-21T08:28:56;96278.56;;;12.71;100.00
2397;BME280;1209;48.410;9.054;2023-03-21T08:31:21;96285.22;;;13.16;100.00
2397;BME280;1209;48.410;9.054;2023-03-21T08:33:46;96275.50;;;13.66;100.00
2397;BME280;1209;48.410;9.054;2023-03-21T08:36:15;96280.81;;;13.72;100.00
2397;BME280;1209;48.410;9.054;2023-03-21T08:38:40;96277.38;;;14.13;100.00
2397;BME280;1209;48.410;9.054;2023-03-21T08:41:05;96275.94;;;14.58;100.00
2397;BME280;1209;48.410;9.054;2023-03-21T08:43:31;96281.59;;;14.62;99.23
2397;BME280;1209;48.410;9.054;2023-03-21T08:45:56;96274.13;;;14.11;97.79
2397;BME280;1209;48.410;9.054;2023-03-21T08:48:22;96275.78;;;14.86;94.09
2397;BME280;1209;48.410;9.054;2023-03-21T08:50:47;96280.84;;;15.07;91.95
2397;BME280;1209;48.410;9.054;2023-03-21T08:53:12;96274.34;;;14.70;93.21
2397;BME280;1209;48.410;9.054;2023-03-21T08:55:38;96261.56;;;14.54;94.63
2397;BME280;1209;48.410;9.054;2023-03-21T08:58:04;96265.63;;;14.57;92.62
2397;BME280;1209;48.410;9.054;2023-03-21T09:00:29;96262.03;;;14.97;91.27
2397;BME280;1209;48.410;9.054;2023-03-21T09:02:55;96273.75;;;15.01;92.00
2397;BME280;1209;48.410;9.054;2023-03-21T09:05:22;96262.19;;;15.75;85.24
2397;BME280;1209;48.410;9.054;2023-03-21T09:07:50;96263.00;;;15.76;81.26
2397;BME280;1209;48.410;9.054;2023-03-21T09:10:18;96260.94;;;15.84;80.14
2397;BME280;1209;48.410;9.054;2023-03-21T09:12:45;96270.25;;;15.87;76.09
2397;BME280;1209;48.410;9.054;2023-03-21T09:15:10;96266.97;;;15.98;79.09
2397;BME280;1209;48.410;9.054;2023-03-21T09:17:37;96266.84;;;16.31;76.89
2397;BME280;1209;48.410;9.054;2023-03-21T09:20:08;96265.13;;;16.05;77.61
2397;BME280;1209;48.410;9.054;2023-03-21T09:22:36;96268.72;;;16.62;77.10
2397;BME280;1209;48.410;9.054;2023-03-21T09:25:02;96266.66;;;16.32;72.94
2397;BME280;1209;48.410;9.054;2023-03-21T09:27:31;96272.19;;;16.62;77.05
2397;BME280;1209;48.410;9.054;2023-03-21T09:29:57;96264.28;;;16.62;74.70
2397;BME280;1209;48.410;9.054;2023-03-21T09:32:22;96261.03;;;16.67;72.27
2397;BME280;1209;48.410;9.054;2023-03-21T09:34:48;96265.34;;;16.10;72.67
2397;BME280;1209;48.410;9.054;2023-03-21T09:37:13;96264.91;;;16.13;74.53
2397;BME280;1209;48.410;9.054;2023-03-21T09:39:39;96263.81;;;16.34;73.87
2397;BME280;1209;48.410;9.054;2023-03-21T09:42:13;96253.81;;;16.43;73.58
2397;BME280;1209;48.410;9.054;2023-03-21T09:47:25;96253.78;;;16.87;72.40
2397;BME280;1209;48.410;9.054;2023-03-21T09:50:06;96253.28;;;16.97;74.24
2397;BME280;1209;48.410;9.054;2023-03-21T09:52:46;96248.34;;;16.82;72.17
2397;BME280;1209;48.410;9.054;2023-03-21T09:55:21;96249.13;;;16.13;75.46
2397;BME280;1209;48.410;9.054;2023-03-21T09:57:50;96250.06;;;16.63;71.66
2397;BME280;1209;48.410;9.054;2023-03-21T10:00:25;96251.47;;;16.97;71.00
2397;BME280;1209;48.410;9.054;2023-03-21T10:02:56;96247.22;;;17.21;72.32
2397;BME280;1209;48.410;9.054;2023-03-21T10:05:28;96237.56;;;17.34;70.14
2397;BME280;1209;48.410;9.054;2023-03-21T10:08:19;96242.69;;;17.28;71.43
2397;BME280;1209;48.410;9.054;2023-03-21T10:10:57;96238.66;;;17.51;69.24
2397;BME280;1209;48.410;9.054;2023-03-21T10:13:28;96235.19;;;17.07;70.90
2397;BME280;1209;48.410;9.054;2023-03-21T10:15:59;96233.50;;;17.56;73.80
2397;BME280;1209;48.410;9.054;2023-03-21T10:18:27;96229.84;;;17.57;68.86
2397;BME280;1209;48.410;9.054;2023-03-21T10:20:53;96229.78;;;17.20;73.77
2397;BME280;1209;48.410;9.054;2023-03-21T10:23:21;96227.34;;;17.19;74.03
2397;BME280;1209;48.410;9.054;2023-03-21T10:25:51;96227.72;;;17.22;67.98
2397;BME280;1209;48.410;9.054;2023-03-21T10:28:20;96223.69;;;16.95;70.64
2397;BME280;1209;48.410;9.054;2023-03-21T10:30:53;96225.31;;;17.21;71.17
2397;BME280;1209;48.410;9.054;2023-03-21T10:33:23;96228.03;;;17.33;72.82
2397;BME280;1209;48.410;9.054;2023-03-21T10:35:51;96228.06;;;17.08;71.58
2397;BME280;1209;48.410;9.054;2023-03-21T10:38:20;96227.94;;;17.21;70.28
2397;BME280;1209;48.410;9.054;2023-03-21T10:40:46;96224.06;;;16.98;74.08
2397;BME280;1209;48.410;9.054;2023-03-21T10:43:18;96221.09;;;16.88;75.84
2397;BME280;1209;48.410;9.054;2023-03-21T10:45:46;96218.09;;;16.85;76.24
2397;BME280;1209;48.410;9.054;2023-03-21T10:48:12;96218.28;;;16.83;74.62
2397;BME280;1209;48.410;9.054;2023-03-21T10:50:37;96228.38;;;16.55;74.03
2397;BME280;1209;48.410;9.054;2023-03-21T10:53:31;96227.19;;;16.89;78.81
2397;BME280;1209;48.410;9.054;2023-03-21T10:55:56;96224.06;;;16.74;79.02
2397;BME280;1209;48.410;9.054;2023-03-21T10:58:36;96224.94;;;16.61;78.14
2397;BME280;1209;48.410;9.054;2023-03-21T11:01:05;96223.19;;;16.42;76.58
2397;BME280;1209;48.410;9.054;2023-03-21T11:03:37;96218.91;;;16.47;79.04
2397;BME280;1209;48.410;9.054;2023-03-21T11:06:13;96219.75;;;16.41;78.99
2397;BME280;1209;48.410;9.054;2023-03-21T11:08:48;96219.47;;;16.24;77.11
2397;BME280;1209;48.410;9.054;2023-03-21T11:11:32;96211.22;;;16.14;80.09
2397;BME280;1209;48.410;9.054;2023-03-21T11:14:01;96210.06;;;16.35;83.90
2397;BME280;1209;48.410;9.054;2023-03-21T11:16:37;96204.78;;;16.35;80.85
2397;BME280;1209;48.410;9.054;2023-03-21T11:19:13;96213.97;;;16.26;80.24
2397;BME280;1209;48.410;9.054;2023-03-21T11:21:39;96208.66;;;16.32;81.59
2397;BME280;1209;48.410;9.054;2023-03-21T11:24:05;96212.97;;;16.58;80.46
2397;BME280;1209;48.410;9.054;2023-03-21T11:26:35;96208.28;;;16.67;80.39
2397;BME280;1209;48.410;9.054;2023-03-21T11:31:48;96217.72;;;16.43;79.99
2397;BME280;1209;48.410;9.054;2023-03-21T11:34:27;96217.28;;;16.46;81.17
2397;BME280;1209;48.410;9.054;2023-03-21T11:36:57;96205.84;;;16.27;81.25
2397;BME280;1209;48.410;9.054;2023-03-21T11:39:34;96206.44;;;16.29;81.76
2397;BME280;1209;48.410;9.054;2023-03-21T11:42:01;96208.56;;;16.14;81.57
2397;BME280;1209;48.410;9.054;2023-03-21T11:44:33;96200.25;;;16.17;80.39
2397;BME280;1209;48.410;9.054;2023-03-21T11:47:00;96205.34;;;16.12;83.16
2397;BME280;1209;48.410;9.054;2023-03-21T11:49:26;96195.22;;;16.02;82.37
2397;BME280;1209;48.410;9.054;2023-03-21T11:52:28;96190.69;;;16.23;84.93
2397;BME280;1209;48.410;9.054;2023-03-21T11:57:49;96176.97;;;16.08;86.99
2397;BME280;1209;48.410;9.054;2023-03-21T12:01:02;96170.28;;;16.43;84.44
2397;BME280;1209;48.410;9.054;2023-03-21T12:04:02;96163.69;;;16.27;78.26
2397;BME280;1209;48.410;9.054;2023-03-21T12:06:34;96163.13;;;16.19;80.67
2397;BME280;1209;48.410;9.054;2023-03-21T12:15:00;96148.81;;;16.40;80.15
2397;BME280;1209;48.410;9.054;2023-03-21T12:17:39;96141.06;;;16.76;78.54
2397;BME280;1209;48.410;9.054;2023-03-21T12:20:19;96137.28;;;16.90;75.46
2397;BME280;1209;48.410;9.054;2023-03-21T12:22:58;96132.75;;;16.97;73.71
2397;BME280;1209;48.410;9.054;2023-03-21T12:25:36;96133.88;;;16.83;73.39
2397;BME280;1209;48.410;9.054;2023-03-21T12:44:28;96126.03;;;17.20;65.19
2397;BME280;1209;48.410;9.054;2023-03-21T12:47:02;96132.03;;;17.45;61.84
2397;BME280;1209;48.410;9.054;2023-03-21T12:49:34;96131.78;;;17.72;61.07
2397;BME280;1209;48.410;9.054;2023-03-21T12:52:09;96118.47;;;17.78;58.11
2397;BME280;1209;48.410;9.054;2023-03-21T12:57:10;96115.97;;;17.65;57.50
2397;BME280;1209;48.410;9.054;2023-03-21T12:59:45;96116.06;;;17.58;55.16
2397;BME280;1209;48.410;9.054;2023-03-21T13:02:31;96110.31;;;17.98;55.55
2397;BME280;1209;48.410;9.054;2023-03-21T13:07:42;96113.69;;;17.87;54.84
2397;BME280;1209;48.410;9.054;2023-03-21T13:10:13;96114.28;;;17.89;54.61
2397;BME280;1209;48.410;9.054;2023-03-21T13:12:43;96102.72;;;18.02;55.92
2397;BME280;1209;48.410;9.054;2023-03-21T13:15:28;96105.88;;;18.22;56.76
2397;BME280;1209;48.410;9.054;2023-03-21T13:18:03;96105.88;;;17.92;57.73
2397;BME280;1209;48.410;9.054;2023-03-21T13:20:43;96094.34;;;18.05;56.60
2397;BME280;1209;48.410;9.054;2023-03-21T13:23:10;96094.88;;;18.37;56.73
2397;BME280;1209;48.410;9.054;2023-03-21T13:25:44;96093.00;;;18.14;55.58
2397;BME280;1209;48.410;9.054;2023-03-21T13:28:22;96090.81;;;18.64;57.43
2397;BME280;1209;48.410;9.054;2023-03-21T13:30:49;96085.38;;;18.59;55.47
2397;BME280;1209;48.410;9.054;2023-03-21T13:33:27;96084.50;;;18.23;53.77
2397;BME280;1209;48.410;9.054;2023-03-21T13:36:24;96078.53;;;18.28;55.44
2397;BME280;1209;48.410;9.054;2023-03-21T13:38:52;96075.31;;;18.26;56.28
2397;BME280;1209;48.410;9.054;2023-03-21T13:41:24;96079.44;;;18.10;56.37
2397;BME280;1209;48.410;9.054;2023-03-21T13:44:05;96073.69;;;18.13;56.49
2397;BME280;1209;48.410;9.054;2023-03-21T13:46:42;96071.03;;;18.02;54.15
2397;BME280;1209;48.410;9.054;2023-03-21T13:51:50;96065.97;;;18.00;52.83
2397;BME280;1209;48.410;9.054;2023-03-21T13:54:20;96067.38;;;18.14;56.63
2397;BME280;1209;48.410;9.054;2023-03-21T13:56:50;96065.06;;;17.76;50.82
2397;BME280;1209;48.410;9.054;2023-03-21T13:59:38;96069.34;;;17.89;50.55
2397;BME280;1209;48.410;9.054;2023-03-21T14:02:29;96068.97;;;18.04;50.23
2397;BME280;1209;48.410;9.054;2023-03-21T14:05:00;96058.78;;;17.89;51.06
2397;BME280;1209;48.410;9.054;2023-03-21T14:07:38;96069.66;;;17.81;51.58
2397;BME280;1209;48.410;9.054;2023-03-21T14:10:12;96064.84;;;17.59;51.55
2397;BME280;1209;48.410;9.054;2023-03-21T14:12:42;96070.59;;;17.56;54.32
2397;BME280;1209;48.410;9.054;2023-03-21T14:15:21;96071.03;;;17.35;51.58
2397;BME280;1209;48.410;9.054;2023-03-21T14:17:54;96060.91;;;17.50;53.29
2397;BME280;1209;48.410;9.054;2023-03-21T14:20:24;96062.53;;;17.51;52.46
2397;BME280;1209;48.410;9.054;2023-03-21T14:22:50;96056.34;;;17.57;53.86
2397;BME280;1209;48.410;9.054;2023-03-21T14:25:18;96054.75;;;17.56;55.62
2397;BME280;1209;48.410;9.054;2023-03-21T14:27:47;96055.09;;;17.60;54.03
2397;BME280;1209;48.410;9.054;2023-03-21T14:30:23;96054.66;;;17.63;52.99
2397;BME280;1209;48.410;9.054;2023-03-21T14:32:49;96052.00;;;17.63;54.95
2397;BME280;1209;48.410;9.054;2023-03-21T14:35:19;96042.72;;;17.42;53.73
2397;BME280;1209;48.410;9.054;2023-03-21T14:37:45;96047.81;;;17.25;54.58